Forside
METAR-TAF:

METAR-TAF

Lufthavne :

Kansai International Airport

Kansai, Japan

Breddekreds: 34-25N, længdekreds: 135-15E, højde: 5 m

Aktuelle vejr

Denne rapport blev lavet for 35 minutter siden, kl. 17:30 UTC
Vind 6 kt fra øst
Temperatur 12°C
Fugtighed 71%
Tryk 1018 hPa
Sigt 10 km eller mere
Nogle få skyer i en højde af 2400 ft

METAR: RJBB 031730Z AUTO 09006KT 9999 FEW024 12/07 Q1018 NOSIG

Tid: 03:05 (18:05 UTC)

Vejrudsigter

Denne rapport blev lavet for 59 minutter siden, kl. 17:06 UTC
Foreløbig gælder fra 03 på 18 UTC til 05 på 00 UTC
Vind 4 kt fra øst
Sigt 10 km eller mere
Nogle få skyer i en højde af 2500 ft
Spredte skyer i en højde af 4500 ft
ændring
fra 03 på 20 UTC til 03 på 22 UTC
Vind 6 kt fra sydsydvest
ændring
fra 04 på 09 UTC til 04 på 12 UTC
Vind 15 kt fra nord

TAF: RJBB 031706Z 0318/0500 10004KT 9999 FEW025 SCT045 BECMG 0320/0322 20006KT BECMG 0409/0412 36015KT

Vejrobservationer og prognoser fra mere end 4000 lufthavne (METAR og TAF).

De gule og røde prikker repræsenterer de meteorologiske stationer.

Flyt musen over at se navnet på stationen.

Så klik over at se vejr observationer og prognoser.

At skifte det kort: Klik på de grønne knapper med et sort kors for at zoome ind; på den grønne knap med en bindestreg for at zoome ud; eller på de grønne pile for tilstødende kort.


METAR-TAF: